createdAt,value
2022-12-08T00:02:13.260Z,-8.88
2022-12-08T00:07:15.289Z,-8.94
2022-12-08T00:12:17.190Z,-8.96
2022-12-08T00:17:18.982Z,-8.90
2022-12-08T00:22:20.946Z,-8.88
2022-12-08T00:27:22.988Z,-8.91
2022-12-08T00:32:24.919Z,-8.91
2022-12-08T00:37:26.766Z,-8.97
2022-12-08T00:42:28.615Z,-8.91
2022-12-08T00:47:30.537Z,-8.79
2022-12-08T00:52:32.532Z,-8.82
2022-12-08T00:57:34.443Z,-8.84
2022-12-08T01:02:36.270Z,-8.84
2022-12-08T01:07:38.150Z,-8.84
2022-12-08T01:12:40.011Z,-8.76
2022-12-08T01:17:41.855Z,-8.77
2022-12-08T01:22:43.676Z,-8.81
2022-12-08T01:27:45.488Z,-8.93
2022-12-08T01:32:47.440Z,-8.89
2022-12-08T01:37:50.437Z,-8.76
2022-12-08T01:42:52.301Z,-8.57
2022-12-08T01:47:56.928Z,-8.70
2022-12-08T01:53:04.287Z,-8.59
2022-12-08T01:58:11.498Z,-8.65
2022-12-08T02:03:18.763Z,-8.63
2022-12-08T02:08:20.839Z,-8.82
2022-12-08T02:13:23.111Z,-8.68
2022-12-08T02:18:53.751Z,-8.66
2022-12-08T02:24:17.988Z,-8.71
2022-12-08T02:29:48.954Z,-8.85
2022-12-08T02:35:40.120Z,-8.84
2022-12-08T02:41:04.451Z,-8.77
2022-12-08T02:46:09.016Z,-8.76
2022-12-08T02:51:10.964Z,-8.68
2022-12-08T02:56:27.623Z,-8.75
2022-12-08T03:01:41.575Z,-8.80
2022-12-08T03:07:32.904Z,-8.80
2022-12-08T03:12:49.644Z,-8.76
2022-12-08T03:17:54.992Z,-8.72
2022-12-08T03:22:57.533Z,-8.69
2022-12-08T03:27:59.672Z,-8.60
2022-12-08T03:33:16.147Z,-8.79
2022-12-08T03:38:18.214Z,-8.72
2022-12-08T03:43:20.142Z,-8.71
2022-12-08T03:48:22.038Z,-8.75
2022-12-08T03:53:23.885Z,-8.70
2022-12-08T03:58:25.701Z,-8.89
2022-12-08T04:03:27.624Z,-8.79
2022-12-08T04:08:29.651Z,-8.84
2022-12-08T04:13:31.649Z,-8.81
2022-12-08T04:18:34.034Z,-8.84
2022-12-08T04:23:35.665Z,-8.86
2022-12-08T04:28:37.812Z,-8.84
2022-12-08T04:33:39.804Z,-8.93
2022-12-08T04:38:41.638Z,-9.14
2022-12-08T04:43:43.501Z,-8.99
2022-12-08T04:48:45.324Z,-8.88
2022-12-08T04:53:47.493Z,-8.96
2022-12-08T04:58:49.343Z,-9.06
2022-12-08T05:03:51.216Z,-9.09
2022-12-08T05:08:53.064Z,-9.18
2022-12-08T05:13:54.862Z,-9.09
2022-12-08T05:18:56.655Z,-9.10
2022-12-08T05:23:58.458Z,-9.10
2022-12-08T05:29:00.282Z,-9.10
2022-12-08T05:34:03.331Z,-9.08
2022-12-08T05:39:05.521Z,-8.93
2022-12-08T05:44:07.370Z,-8.86
2022-12-08T05:49:09.277Z,-8.90
2022-12-08T05:54:11.133Z,-8.87
2022-12-08T05:59:12.989Z,-8.86
2022-12-08T06:04:14.814Z,-8.95
2022-12-08T06:09:16.601Z,-8.94
2022-12-08T06:14:18.469Z,-8.82
2022-12-08T06:19:20.248Z,-8.84
2022-12-08T06:24:22.168Z,-8.77
2022-12-08T06:29:23.975Z,-8.71
2022-12-08T06:34:25.786Z,-8.71
2022-12-08T06:39:27.638Z,-8.70
2022-12-08T06:44:29.501Z,-8.67
2022-12-08T06:49:31.308Z,-8.64
2022-12-08T06:54:33.058Z,-8.52
2022-12-08T06:59:34.946Z,-8.49
2022-12-08T07:04:36.882Z,-8.51
2022-12-08T07:09:38.787Z,-8.42
2022-12-08T07:14:40.609Z,-8.31
2022-12-08T07:19:42.467Z,-8.34
2022-12-08T07:24:44.241Z,-8.47
2022-12-08T07:29:45.979Z,-8.45
2022-12-08T07:34:47.845Z,-8.29
2022-12-08T07:39:49.651Z,-8.25
2022-12-08T07:44:51.421Z,-8.16
2022-12-08T07:49:53.267Z,-8.00
2022-12-08T07:54:55.054Z,-7.80
2022-12-08T07:59:56.830Z,-7.87
2022-12-08T08:04:58.720Z,-7.95
2022-12-08T08:10:00.571Z,-7.96
2022-12-08T08:15:02.901Z,-7.89
2022-12-08T08:20:06.703Z,-7.94
2022-12-08T08:25:09.171Z,-7.93
2022-12-08T08:30:18.135Z,-7.80
2022-12-08T08:35:22.048Z,-7.82
2022-12-08T08:40:24.008Z,-7.87
2022-12-08T08:45:25.795Z,-7.74
2022-12-08T08:50:30.472Z,-7.60
2022-12-08T08:55:34.764Z,-7.49
2022-12-08T09:00:36.619Z,-7.36
2022-12-08T09:05:39.116Z,-7.44
2022-12-08T09:10:41.018Z,-7.49
2022-12-08T09:15:42.964Z,-7.34
2022-12-08T09:20:44.847Z,-7.36
2022-12-08T09:25:46.772Z,-7.46
2022-12-08T09:30:48.781Z,-7.63
2022-12-08T09:35:50.781Z,-7.58
2022-12-08T09:40:53.262Z,-7.63
2022-12-08T09:45:55.016Z,-7.46
2022-12-08T09:50:57.449Z,-7.48
2022-12-08T09:55:59.486Z,-7.40
2022-12-08T10:01:01.353Z,-7.30
2022-12-08T10:06:27.787Z,-7.40
2022-12-08T10:11:46.845Z,-7.37
2022-12-08T10:16:49.835Z,-7.38
2022-12-08T10:21:51.788Z,-7.67
2022-12-08T10:26:54.122Z,-7.56
2022-12-08T10:31:59.255Z,-7.63
2022-12-08T10:37:01.095Z,-7.57
2022-12-08T10:42:06.663Z,-7.62
2022-12-08T10:47:12.577Z,-7.53
2022-12-08T10:52:24.031Z,-7.52
2022-12-08T10:57:25.877Z,-7.47
2022-12-08T11:02:27.823Z,-7.61
2022-12-08T11:07:29.761Z,-7.44
2022-12-08T11:12:31.562Z,-7.34
2022-12-08T11:17:37.349Z,-7.37
2022-12-08T11:22:43.295Z,-7.25
2022-12-08T11:27:46.677Z,-7.27
2022-12-08T11:32:57.350Z,-7.14
2022-12-08T11:38:20.522Z,-7.17
2022-12-08T11:43:28.891Z,-7.15
2022-12-08T11:48:33.406Z,-7.04
2022-12-08T11:53:58.801Z,-7.04
2022-12-08T11:59:20.718Z,-6.93
2022-12-08T12:04:41.198Z,-7.06
2022-12-08T12:09:57.982Z,-7.06
2022-12-08T12:15:37.977Z,-6.98
2022-12-08T12:20:48.464Z,-6.94
2022-12-08T12:25:59.820Z,-6.85
2022-12-08T12:31:03.450Z,-7.01
2022-12-08T12:36:06.846Z,-6.85
2022-12-08T12:41:08.664Z,-6.85
2022-12-08T12:46:25.662Z,-6.68
2022-12-08T12:51:56.981Z,-6.70
2022-12-08T12:57:04.775Z,-6.63
2022-12-08T13:02:18.103Z,-6.65
2022-12-08T13:07:25.092Z,-6.66
2022-12-08T13:12:26.898Z,-6.64
2022-12-08T13:17:33.492Z,-6.64
2022-12-08T13:22:53.577Z,-6.49
2022-12-08T13:27:56.720Z,-6.48
2022-12-08T13:38:21.472Z,-6.48
2022-12-08T13:43:45.047Z,-6.56
2022-12-08T13:50:42.613Z,-6.59
2022-12-08T14:00:15.098Z,-6.38
2022-12-08T14:05:19.512Z,-6.31
2022-12-08T14:10:37.172Z,-6.29
2022-12-08T14:15:39.810Z,-6.35
2022-12-08T14:21:12.637Z,-6.22
2022-12-08T14:26:07.868Z,-6.29
2022-12-08T14:31:09.808Z,-6.27
2022-12-08T14:36:19.231Z,-6.31
2022-12-08T14:41:25.519Z,-6.20
2022-12-08T14:46:27.681Z,-6.08
2022-12-08T14:51:31.207Z,-6.04
2022-12-08T14:56:47.797Z,-5.97
2022-12-08T15:01:51.158Z,-5.93
2022-12-08T15:06:59.898Z,-5.92
2022-12-08T15:12:13.078Z,-5.98
2022-12-08T15:17:47.476Z,-6.00
2022-12-08T15:22:49.360Z,-6.15
2022-12-08T15:27:52.132Z,-6.26
2022-12-08T15:32:54.088Z,-6.12
2022-12-08T15:37:55.956Z,-6.07
2022-12-08T15:42:58.028Z,-6.07
2022-12-08T15:47:59.955Z,-6.13
2022-12-08T15:53:01.962Z,-6.07
2022-12-08T15:58:51.934Z,-6.09
2022-12-08T16:09:06.129Z,-6.00
2022-12-08T16:15:01.936Z,-5.97
2022-12-08T16:19:37.170Z,-5.99
2022-12-08T16:24:39.397Z,-6.08
2022-12-08T16:29:41.225Z,-6.00
2022-12-08T16:34:43.649Z,-5.91
2022-12-08T16:39:45.978Z,-5.90
2022-12-08T16:44:48.266Z,-5.81
2022-12-08T16:49:50.189Z,-5.76
2022-12-08T16:54:52.198Z,-5.88
2022-12-08T16:59:54.093Z,-5.90
2022-12-08T17:04:56.206Z,-5.98
2022-12-08T17:09:58.777Z,-6.04
2022-12-08T17:15:03.045Z,-5.93
2022-12-08T17:20:12.161Z,-5.71
2022-12-08T17:25:15.173Z,-5.67
2022-12-08T17:30:17.193Z,-5.55
2022-12-08T17:35:19.118Z,-5.36
2022-12-08T17:40:21.314Z,-5.37
2022-12-08T17:45:23.207Z,-5.36
2022-12-08T17:50:25.080Z,-5.37
2022-12-08T17:55:26.966Z,-5.40
2022-12-08T18:00:28.883Z,-5.36
2022-12-08T18:05:31.350Z,-5.37
2022-12-08T18:10:33.239Z,-5.35
2022-12-08T18:15:39.161Z,-5.34
2022-12-08T18:20:41.301Z,-5.42
2022-12-08T18:25:43.655Z,-5.37
2022-12-08T18:30:45.466Z,-5.27
2022-12-08T18:35:47.418Z,-5.28
2022-12-08T18:40:49.234Z,-5.29
2022-12-08T18:45:51.246Z,-5.53
2022-12-08T18:50:53.205Z,-5.34
2022-12-08T18:55:55.015Z,-5.41
2022-12-08T19:00:56.956Z,-5.28
2022-12-08T19:06:03.568Z,-5.37
2022-12-08T19:11:05.997Z,-5.30
2022-12-08T19:16:08.259Z,-5.37
2022-12-08T19:21:10.484Z,-5.28
2022-12-08T19:26:12.350Z,-5.27
2022-12-08T19:31:14.180Z,-5.20
2022-12-08T19:36:17.453Z,-5.32
2022-12-08T19:41:19.280Z,-4.95
2022-12-08T19:46:21.285Z,-4.91
2022-12-08T19:51:23.342Z,-4.87
2022-12-08T19:56:25.200Z,-4.93
2022-12-08T20:01:27.178Z,-4.93
2022-12-08T20:06:29.167Z,-4.89
2022-12-08T20:11:31.014Z,-4.86
2022-12-08T20:16:38.919Z,-5.02
2022-12-08T20:21:40.859Z,-4.92
2022-12-08T20:26:42.795Z,-4.85
2022-12-08T20:31:44.931Z,-4.69
2022-12-08T20:36:58.691Z,-4.75
2022-12-08T20:42:00.613Z,-4.83
2022-12-08T20:47:02.705Z,-4.82
2022-12-08T20:52:04.845Z,-4.84
2022-12-08T20:57:06.964Z,-4.74
2022-12-08T21:02:10.683Z,-4.81
2022-12-08T21:07:12.708Z,-4.87
2022-12-08T21:12:14.786Z,-4.82
2022-12-08T21:17:16.705Z,-4.83
2022-12-08T21:22:19.024Z,-4.79
2022-12-08T21:27:21.027Z,-4.79
2022-12-08T21:32:28.625Z,-4.68
2022-12-08T21:37:32.267Z,-4.63
2022-12-08T21:42:34.607Z,-4.56
2022-12-08T21:47:36.631Z,-4.82
2022-12-08T21:52:42.712Z,-4.60
2022-12-08T21:57:44.772Z,-4.57
2022-12-08T22:02:47.061Z,-4.68
2022-12-08T22:07:49.123Z,-4.71
2022-12-08T22:12:51.367Z,-4.63
2022-12-08T22:17:53.410Z,-4.50
2022-12-08T22:22:55.306Z,-4.57
2022-12-08T22:27:57.167Z,-4.54
2022-12-08T22:32:58.938Z,-4.63
2022-12-08T22:38:01.058Z,-4.56
2022-12-08T22:43:02.925Z,-4.48
2022-12-08T22:48:05.197Z,-4.63
2022-12-08T22:53:07.487Z,-4.52
2022-12-08T22:58:10.330Z,-4.49
2022-12-08T23:03:12.345Z,-4.45
2022-12-08T23:08:15.283Z,-4.38
2022-12-08T23:13:17.383Z,-4.50
2022-12-08T23:18:19.634Z,-4.42
2022-12-08T23:23:21.710Z,-4.43
2022-12-08T23:28:23.819Z,-4.38
2022-12-08T23:33:25.958Z,-4.47
2022-12-08T23:38:27.890Z,-4.46
2022-12-08T23:43:29.970Z,-4.29
2022-12-08T23:48:31.980Z,-4.26
2022-12-08T23:53:34.051Z,-4.21
2022-12-08T23:58:36.156Z,-4.18
